Time;durP1;ratioP1;P1;durP2;ratioP2;P2;SDS_P1;SDS_P2;PMS_P1;PMS_P2;Temp;Humidity;BMP_temperature;BMP_pressure;BME280_temperature;BME280_humidity;BME280_pressure;Samples;Min_cycle;Max_cycle;Signal;HPM_P1;HPM_P2
2023/02/06 00:00:34;;;;;;;36.20;20.50;;;;;;;0.98;100.00;104064.88;5037636;28;20302;-65
2023/02/06 00:03:00;;;;;;;35.93;20.70;;;;;;;0.96;100.00;104062.94;5038554;28;20194;-65
2023/02/06 00:05:25;;;;;;;34.40;19.97;;;;;;;0.93;100.00;104060.97;5036642;28;20875;-65
2023/02/06 00:07:51;;;;;;;36.23;20.13;;;;;;;0.91;100.00;104059.88;5038198;28;20186;-65
2023/02/06 00:10:16;;;;;;;37.33;21.03;;;;;;;0.90;100.00;104060.63;5028163;28;20194;-65
2023/02/06 00:12:42;;;;;;;32.33;19.50;;;;;;;0.92;100.00;104073.41;5038487;28;20724;-65
2023/02/06 00:15:08;;;;;;;35.73;21.37;;;;;;;0.93;100.00;104073.59;5040691;28;20220;-66
2023/02/06 00:17:37;;;;;;;38.17;20.97;;;;;;;0.95;100.00;104076.25;5044910;28;20277;-65
2023/02/06 00:20:04;;;;;;;37.27;20.63;;;;;;;0.94;100.00;104069.41;5041716;28;20240;-65
2023/02/06 00:22:30;;;;;;;35.23;20.00;;;;;;;0.94;100.00;104070.31;5043709;28;20689;-65
2023/02/06 00:24:55;;;;;;;38.70;19.97;;;;;;;0.94;100.00;104070.31;5043040;28;20206;-65
2023/02/06 00:27:21;;;;;;;36.43;19.83;;;;;;;0.95;100.00;104072.09;5040106;28;20263;-67
2023/02/06 00:29:46;;;;;;;33.90;20.00;;;;;;;0.94;100.00;104075.38;5045138;28;20613;-66
2023/02/06 00:32:12;;;;;;;36.63;19.63;;;;;;;0.92;100.00;104074.28;5041930;28;20201;-67
2023/02/06 00:34:39;;;;;;;36.00;19.10;;;;;;;0.93;100.00;104077.72;5043887;28;20202;-65
2023/02/06 00:37:05;;;;;;;31.97;19.37;;;;;;;0.92;100.00;104083.50;5025651;28;20197;-64
2023/02/06 00:39:30;;;;;;;36.73;18.47;;;;;;;0.89;100.00;104078.09;5039785;28;20584;-66
2023/02/06 00:41:56;;;;;;;37.60;20.13;;;;;;;0.88;100.00;104087.31;5037507;28;20197;-66
2023/02/06 00:44:22;;;;;;;30.40;17.50;;;;;;;0.85;100.00;104084.44;5070147;28;20292;-64
2023/02/06 00:46:48;;;;;;;31.10;18.53;;;;;;;0.77;100.00;104090.25;5042618;28;20235;-66
2023/02/06 00:49:13;;;;;;;35.43;19.23;;;;;;;0.75;100.00;104088.31;5038726;28;20186;-66
2023/02/06 00:51:39;;;;;;;36.80;18.13;;;;;;;0.75;100.00;104083.25;5038147;28;20276;-66
2023/02/06 00:54:06;;;;;;;29.67;16.57;;;;;;;0.73;100.00;104087.25;5054635;28;20197;-66
2023/02/06 00:56:32;;;;;;;28.10;16.10;;;;;;;0.70;100.00;104094.47;5037478;28;20221;-66
2023/02/06 00:58:57;;;;;;;32.47;17.10;;;;;;;0.68;100.00;104098.44;5059594;28;20218;-66
2023/02/06 01:01:25;;;;;;;28.37;16.47;;;;;;;0.63;100.00;104090.38;5043798;28;20654;-67
2023/02/06 01:03:51;;;;;;;28.20;15.67;;;;;;;0.60;100.00;104086.63;5050148;28;20243;-65
2023/02/06 01:06:17;;;;;;;27.57;15.67;;;;;;;0.57;100.00;104088.78;5049877;28;20224;-66
2023/02/06 01:08:43;;;;;;;28.60;15.37;;;;;;;0.58;100.00;104083.91;5035667;28;20288;-66
2023/02/06 01:11:11;;;;;;;27.57;16.00;;;;;;;0.60;100.00;104089.13;5067515;28;20252;-69
2023/02/06 01:13:37;;;;;;;24.90;14.60;;;;;;;0.56;100.00;104087.00;5048275;28;20569;-65
2023/02/06 01:16:07;;;;;;;27.97;15.63;;;;;;;0.56;100.00;104084.47;5039217;28;20220;-65
2023/02/06 01:18:33;;;;;;;27.97;15.57;;;;;;;0.60;100.00;104087.53;5042068;28;20202;-65
2023/02/06 01:20:58;;;;;;;30.00;14.60;;;;;;;0.61;100.00;104074.19;5049079;28;20186;-65
2023/02/06 01:23:24;;;;;;;33.50;15.23;;;;;;;0.62;100.00;104077.59;5044573;28;20202;-67
2023/02/06 01:25:50;;;;;;;25.67;13.70;;;;;;;0.65;100.00;104077.94;5045662;28;20609;-67
2023/02/06 01:28:15;;;;;;;27.80;14.40;;;;;;;0.65;100.00;104081.38;5056041;28;20197;-65
2023/02/06 01:30:41;;;;;;;26.90;15.40;;;;;;;0.66;100.00;104083.16;5044180;28;20217;-65
2023/02/06 01:33:06;;;;;;;36.17;14.93;;;;;;;0.68;100.00;104085.84;5053177;28;20198;-65
2023/02/06 01:35:32;;;;;;;26.73;14.73;;;;;;;0.66;100.00;104084.75;5044111;28;20866;-67
2023/02/06 01:37:58;;;;;;;29.80;15.50;;;;;;;0.66;100.00;104082.25;5076388;28;20185;-66
2023/02/06 01:40:24;;;;;;;32.77;15.23;;;;;;;0.63;100.00;104085.31;5041355;28;20585;-64
2023/02/06 01:42:49;;;;;;;27.60;15.03;;;;;;;0.58;100.00;104078.88;5044229;28;20224;-65
2023/02/06 01:45:44;;;;;;;31.50;14.70;;;;;;;0.59;100.00;104084.81;5038941;28;20213;-66
2023/02/06 01:48:19;;;;;;;28.50;16.00;;;;;;;0.56;100.00;104100.50;5037363;28;20699;-65
2023/02/06 01:50:50;;;;;;;29.33;14.73;;;;;;;0.52;100.00;104094.94;5055750;28;20209;-66
2023/02/06 01:53:17;;;;;;;24.23;13.77;;;;;;;0.46;100.00;104100.19;5040855;28;20189;-65
2023/02/06 01:55:45;;;;;;;24.43;14.47;;;;;;;0.43;100.00;104107.44;5042513;28;20209;-66
2023/02/06 01:58:18;;;;;;;27.23;14.93;;;;;;;0.36;100.00;104112.50;5059705;28;20224;-64
2023/02/06 02:00:44;;;;;;;25.20;14.00;;;;;;;0.40;100.00;104093.59;5041594;28;20217;-65
2023/02/06 02:03:10;;;;;;;26.60;14.10;;;;;;;0.43;100.00;104102.38;5081504;28;20725;-67
2023/02/06 02:05:38;;;;;;;28.33;14.63;;;;;;;0.47;100.00;104093.53;5047588;28;20229;-66
2023/02/06 02:08:24;;;;;;;24.77;14.77;;;;;;;0.49;100.00;104100.53;5041823;28;20197;-66
2023/02/06 02:10:50;;;;;;;26.40;13.87;;;;;;;0.49;100.00;104099.66;5070103;28;20578;-65
2023/02/06 02:13:15;;;;;;;22.77;14.40;;;;;;;0.47;100.00;104099.47;5043453;28;20284;-67
2023/02/06 02:16:03;;;;;;;25.13;12.90;;;;;;;0.42;100.00;104105.63;5079068;28;20240;-66
2023/02/06 02:18:47;;;;;;;20.23;12.20;;;;;;;0.34;100.00;104099.72;5041944;28;20279;-66
2023/02/06 02:21:39;;;;;;;24.53;14.07;;;;;;;0.28;100.00;104108.22;5057930;28;20243;-69
2023/02/06 02:24:16;;;;;;;28.67;13.97;;;;;;;0.18;100.00;104098.72;5041891;28;20225;-66
2023/02/06 02:27:05;;;;;;;22.23;12.60;;;;;;;0.10;100.00;104108.69;5043746;28;20213;-66
2023/02/06 02:30:09;;;;;;;26.33;12.90;;;;;;;0.03;100.00;104116.25;5065511;28;20284;-66
2023/02/06 02:32:58;;;;;;;23.43;13.00;;;;;;;0.01;100.00;104112.66;5041871;28;20241;-65
2023/02/06 02:35:39;;;;;;;21.77;12.60;;;;;;;-0.02;100.00;104110.72;5038603;28;20221;-66
2023/02/06 02:38:26;;;;;;;22.07;12.83;;;;;;;-0.04;100.00;104109.63;5042747;28;20208;-66
2023/02/06 02:41:09;;;;;;;26.00;12.23;;;;;;;-0.02;100.00;104105.66;5039093;28;20694;-65
2023/02/06 02:44:19;;;;;;;26.97;12.63;;;;;;;-0.04;100.00;104112.13;5036393;28;20559;-66
2023/02/06 02:46:50;;;;;;;24.27;12.33;;;;;;;-0.06;100.00;104110.16;5029771;28;20222;-65
2023/02/06 02:49:20;;;;;;;25.13;12.17;;;;;;;-0.05;100.00;104105.31;5045155;28;20200;-65
2023/02/06 02:51:48;;;;;;;21.57;12.43;;;;;;;-0.10;100.00;104110.53;5042223;28;20257;-65
2023/02/06 02:54:13;;;;;;;22.43;11.37;;;;;;;-0.15;100.00;104106.59;5080184;28;20189;-66
2023/02/06 02:56:39;;;;;;;24.60;12.17;;;;;;;-0.20;100.00;104103.56;5043816;28;20202;-65
2023/02/06 02:59:13;;;;;;;24.10;11.93;;;;;;;-0.11;100.00;104094.56;5062808;28;20868;-66
2023/02/06 03:01:51;;;;;;;19.83;11.30;;;;;;;-0.11;100.00;104098.69;5045267;28;20193;-67
2023/02/06 03:04:34;;;;;;;21.50;10.87;;;;;;;-0.10;100.00;104103.88;5042250;28;20208;-66
2023/02/06 03:07:05;;;;;;;22.27;11.10;;;;;;;-0.15;100.00;104097.44;5039364;28;20709;-66
2023/02/06 03:10:13;;;;;;;21.23;11.20;;;;;;;-0.12;100.00;104084.31;5040891;28;20199;-66
2023/02/06 03:13:03;;;;;;;19.80;11.10;;;;;;;-0.12;100.00;104074.22;5005964;28;20280;-65
2023/02/06 03:15:48;;;;;;;24.80;11.90;;;;;;;-0.13;100.00;104065.75;5039538;28;20214;-65
2023/02/06 03:18:21;;;;;;;24.00;11.87;;;;;;;-0.10;100.00;104070.25;5040589;28;20630;-66
2023/02/06 03:20:48;;;;;;;21.60;10.10;;;;;;;-0.13;100.00;104065.75;5037366;28;20222;-66
2023/02/06 03:23:20;;;;;;;23.57;11.40;;;;;;;-0.15;100.00;104077.28;5042386;28;20590;-66
2023/02/06 03:25:50;;;;;;;22.20;10.93;;;;;;;-0.17;100.00;104068.66;5042675;28;20213;-66
2023/02/06 03:28:22;;;;;;;25.93;10.27;;;;;;;-0.18;100.00;104069.38;5067476;28;20194;-65
2023/02/06 03:30:52;;;;;;;22.57;10.90;;;;;;;-0.23;100.00;104067.97;5038433;28;20296;-66
2023/02/06 03:33:24;;;;;;;22.60;11.47;;;;;;;-0.29;100.00;104071.41;5040651;28;20677;-68
2023/02/06 03:35:50;;;;;;;22.17;10.90;;;;;;;-0.31;100.00;104071.22;5049254;28;20216;-66
2023/02/06 03:38:15;;;;;;;22.87;10.07;;;;;;;-0.35;100.00;104073.22;5044186;28;20217;-65
2023/02/06 03:40:45;;;;;;;19.23;9.93;;;;;;;-0.40;100.00;104066.78;5032187;28;20664;-66
2023/02/06 03:43:17;;;;;;;19.53;10.77;;;;;;;-0.44;100.00;104070.56;5036840;28;20741;-66
2023/02/06 03:45:48;;;;;;;21.10;9.93;;;;;;;-0.48;100.00;104075.97;5021153;28;20313;-67
2023/02/06 03:48:23;;;;;;;25.97;10.17;;;;;;;-0.52;100.00;104070.41;5036121;28;20202;-66
2023/02/06 03:50:53;;;;;;;22.63;10.70;;;;;;;-0.57;100.00;104067.38;5035371;28;20555;-65
2023/02/06 03:53:21;;;;;;;23.83;10.23;;;;;;;-0.50;100.00;104069.84;5036922;28;20190;-68
2023/02/06 03:55:50;;;;;;;22.13;9.27;;;;;;;-0.40;100.00;104071.81;5032607;28;20213;-65
2023/02/06 03:58:16;;;;;;;27.53;10.63;;;;;;;-0.36;100.00;104074.84;5037955;28;20209;-65
2023/02/06 04:00:44;;;;;;;18.13;9.80;;;;;;;-0.35;100.00;104065.69;5035389;28;20214;-67
2023/02/06 04:03:11;;;;;;;26.60;9.97;;;;;;;-0.34;100.00;104065.88;5036307;28;20203;-65
2023/02/06 04:05:37;;;;;;;21.60;9.77;;;;;;;-0.37;100.00;104057.94;5035843;28;20252;-65
2023/02/06 04:08:03;;;;;;;21.30;9.20;;;;;;;-0.41;100.00;104065.88;5068721;28;20587;-65
2023/02/06 04:10:29;;;;;;;18.77;9.13;;;;;;;-0.38;100.00;104070.34;5038330;28;20280;-66
2023/02/06 04:12:54;;;;;;;19.27;9.37;;;;;;;-0.38;100.00;104065.31;5034448;28;20201;-66
2023/02/06 04:15:20;;;;;;;22.40;9.23;;;;;;;-0.40;100.00;104075.19;5040194;28;20713;-67
2023/02/06 04:17:45;;;;;;;18.07;8.87;;;;;;;-0.39;100.00;104068.56;5037130;28;20190;-66
2023/02/06 04:20:11;;;;;;;24.37;9.63;;;;;;;-0.39;100.00;104063.53;5036422;28;20335;-66
2023/02/06 04:22:38;;;;;;;17.90;9.23;;;;;;;-0.48;100.00;104068.44;5032339;28;20209;-65
2023/02/06 04:25:04;;;;;;;21.67;9.80;;;;;;;-0.52;100.00;104065.34;5059367;28;20217;-65
2023/02/06 04:27:29;;;;;;;19.27;9.37;;;;;;;-0.57;100.00;104069.88;5029935;28;20580;-63
2023/02/06 04:29:55;;;;;;;18.53;9.03;;;;;;;-0.61;100.00;104071.84;5034095;28;20194;-65
2023/02/06 04:32:20;;;;;;;20.10;8.80;;;;;;;-0.64;100.00;104066.50;5032698;28;20194;-68
2023/02/06 04:34:46;;;;;;;22.03;9.23;;;;;;;-0.67;100.00;104068.63;5032949;28;20213;-65
2023/02/06 04:37:11;;;;;;;18.90;8.50;;;;;;;-0.69;100.00;104078.50;5029697;28;20602;-65
2023/02/06 04:39:37;;;;;;;16.17;7.47;;;;;;;-0.74;100.00;104077.09;5031591;28;20248;-64
2023/02/06 04:42:03;;;;;;;17.37;7.80;;;;;;;-0.76;100.00;104073.50;5027645;28;20194;-64
2023/02/06 04:44:29;;;;;;;21.20;8.23;;;;;;;-0.79;100.00;104070.63;5034173;28;20213;-64
2023/02/06 04:46:55;;;;;;;18.70;7.63;;;;;;;-0.81;100.00;104073.69;5037117;28;20217;-64
2023/02/06 04:49:21;;;;;;;17.30;7.77;;;;;;;-0.85;100.00;104071.53;5051813;28;20718;-64
2023/02/06 04:51:46;;;;;;;19.30;7.63;;;;;;;-0.89;100.00;104069.38;5037364;28;20222;-64
2023/02/06 04:54:16;;;;;;;20.20;7.83;;;;;;;-0.96;100.00;104071.91;5037728;28;20191;-65
2023/02/06 04:56:45;;;;;;;19.20;7.80;;;;;;;-0.97;100.00;104071.00;5032099;28;20205;-65
2023/02/06 04:59:11;;;;;;;18.40;7.53;;;;;;;-0.95;100.00;104069.59;5039134;28;20217;-65
2023/02/06 05:01:37;;;;;;;18.00;8.53;;;;;;;-0.92;100.00;104081.63;5036221;28;20201;-65
2023/02/06 05:04:02;;;;;;;17.20;7.27;;;;;;;-0.96;100.00;104082.84;5038397;28;20190;-64
2023/02/06 05:06:31;;;;;;;17.67;7.20;;;;;;;-0.95;100.00;104089.69;5039843;28;20267;-64
2023/02/06 05:09:02;;;;;;;16.43;7.07;;;;;;;-0.97;100.00;104087.69;5029936;28;20273;-64
2023/02/06 05:11:27;;;;;;;18.23;7.27;;;;;;;-0.97;100.00;104086.09;5035955;28;20197;-65
2023/02/06 05:13:53;;;;;;;20.43;8.03;;;;;;;-0.97;100.00;104083.56;5029110;28;20277;-65
2023/02/06 05:16:18;;;;;;;13.20;6.50;;;;;;;-1.00;100.00;104082.31;5037552;28;20214;-65
2023/02/06 05:18:44;;;;;;;19.23;7.87;;;;;;;-0.99;100.00;104080.00;5034495;28;20225;-66
2023/02/06 05:21:11;;;;;;;17.20;6.87;;;;;;;-0.97;100.00;104087.69;5030794;28;20201;-65
2023/02/06 05:23:37;;;;;;;17.93;7.00;;;;;;;-0.98;100.00;104076.75;5031465;28;20193;-64
2023/02/06 05:26:03;;;;;;;17.60;6.87;;;;;;;-0.94;100.00;104081.44;5035251;28;20210;-64
2023/02/06 05:28:29;;;;;;;15.73;7.00;;;;;;;-0.96;100.00;104082.84;5032906;28;20656;-64
2023/02/06 05:30:55;;;;;;;17.70;6.60;;;;;;;-1.00;100.00;104079.81;5037721;28;20182;-66
2023/02/06 05:33:21;;;;;;;14.37;6.27;;;;;;;-1.05;100.00;104074.22;5035862;28;20198;-64
2023/02/06 05:35:46;;;;;;;21.37;6.57;;;;;;;-1.05;100.00;104079.25;5030748;28;20289;-66
2023/02/06 05:38:12;;;;;;;16.87;7.23;;;;;;;-1.07;100.00;104080.72;5026706;28;20278;-64
2023/02/06 05:40:37;;;;;;;25.07;7.37;;;;;;;-1.08;100.00;104083.94;5028948;28;20217;-63
2023/02/06 05:43:03;;;;;;;17.93;7.00;;;;;;;-1.08;100.00;104096.53;5031417;28;20245;-66
2023/02/06 05:45:28;;;;;;;17.70;7.40;;;;;;;-1.07;100.00;104099.91;5034886;28;20229;-62
2023/02/06 05:47:54;;;;;;;16.83;7.67;;;;;;;-1.11;100.00;104106.19;5028212;28;20190;-64
2023/02/06 05:50:20;;;;;;;21.63;8.67;;;;;;;-1.16;100.00;104104.75;5064114;28;20281;-65
2023/02/06 05:52:45;;;;;;;21.17;8.57;;;;;;;-1.19;100.00;104116.06;5030863;28;20301;-65
2023/02/06 05:55:11;;;;;;;20.40;8.87;;;;;;;-1.23;100.00;104119.81;5034256;28;20306;-65
2023/02/06 05:57:37;;;;;;;22.13;8.90;;;;;;;-1.24;100.00;104122.19;5032876;28;20240;-64
2023/02/06 06:00:04;;;;;;;17.00;7.30;;;;;;;-1.26;100.00;104132.03;5033452;28;20214;-63
2023/02/06 06:02:36;;;;;;;20.70;7.07;;;;;;;-1.30;100.00;104134.00;5031509;28;20199;-65
2023/02/06 06:05:02;;;;;;;15.80;7.60;;;;;;;-1.31;100.00;104134.72;5032948;28;20211;-66
2023/02/06 06:07:28;;;;;;;18.87;7.47;;;;;;;-1.35;100.00;104127.53;5038734;28;20659;-66
2023/02/06 06:09:53;;;;;;;20.97;6.97;;;;;;;-1.39;100.00;104128.78;5034463;28;20688;-65
2023/02/06 06:12:19;;;;;;;18.30;7.00;;;;;;;-1.37;100.00;104124.81;5043155;28;20594;-64
2023/02/06 06:14:44;;;;;;;15.83;6.53;;;;;;;-1.41;100.00;104124.28;5036009;28;20237;-66
2023/02/06 06:17:09;;;;;;;20.63;7.53;;;;;;;-1.43;100.00;104130.72;5038334;28;20209;-64
2023/02/06 06:19:35;;;;;;;21.27;7.30;;;;;;;-1.48;100.00;104130.19;5040264;28;20214;-64
2023/02/06 06:22:00;;;;;;;14.77;5.90;;;;;;;-1.43;100.00;104133.25;5036539;28;20205;-65
2023/02/06 06:24:26;;;;;;;19.03;5.77;;;;;;;-1.44;100.00;104117.28;5038025;28;20194;-66
2023/02/06 06:26:52;;;;;;;14.57;6.37;;;;;;;-1.49;100.00;104118.34;5035647;28;20242;-64
2023/02/06 06:29:17;;;;;;;15.37;6.33;;;;;;;-1.45;100.00;104119.59;5040082;28;20718;-65
2023/02/06 06:31:43;;;;;;;18.50;6.67;;;;;;;-1.44;100.00;104123.91;5036372;28;20198;-64
2023/02/06 06:34:09;;;;;;;14.83;6.07;;;;;;;-1.44;100.00;104128.94;5037782;28;20195;-65
2023/02/06 06:36:34;;;;;;;15.87;6.97;;;;;;;-1.45;100.00;104123.03;5040859;28;20725;-64
2023/02/06 06:39:00;;;;;;;15.97;5.37;;;;;;;-1.43;100.00;104124.09;5039240;28;20224;-65
2023/02/06 06:41:25;;;;;;;14.47;6.17;;;;;;;-1.35;100.00;104128.44;5037061;28;20260;-66
2023/02/06 06:43:54;;;;;;;15.77;5.80;;;;;;;-1.32;100.00;104132.94;5036444;28;20206;-65
2023/02/06 06:46:20;;;;;;;23.10;6.13;;;;;;;-1.30;100.00;104134.00;5034350;28;20214;-65
2023/02/06 06:48:45;;;;;;;19.93;6.63;;;;;;;-1.24;100.00;104119.66;5041359;28;20203;-64
2023/02/06 06:51:11;;;;;;;17.20;5.60;;;;;;;-1.19;100.00;104121.97;5039624;28;20284;-66
2023/02/06 06:53:38;;;;;;;15.43;5.70;;;;;;;-1.13;100.00;104126.84;5038625;28;20221;-65
2023/02/06 06:56:10;;;;;;;21.07;5.97;;;;;;;-1.14;100.00;104127.56;5037545;28;20238;-64
2023/02/06 06:58:35;;;;;;;14.80;6.40;;;;;;;-1.16;100.00;104124.88;5065556;28;20206;-65
2023/02/06 07:01:01;;;;;;;17.13;5.83;;;;;;;-1.18;100.00;104127.91;5036861;28;20210;-65
2023/02/06 07:03:26;;;;;;;12.43;4.90;;;;;;;-1.17;100.00;104132.22;5036448;28;20194;-65
2023/02/06 07:05:52;;;;;;;21.30;6.70;;;;;;;-1.17;100.00;104133.13;5032637;28;20261;-65
2023/02/06 07:08:17;;;;;;;18.70;6.27;;;;;;;-1.17;100.00;104128.09;5037881;28;20191;-67
2023/02/06 07:10:43;;;;;;;18.33;6.00;;;;;;;-1.17;100.00;104130.63;5037069;28;20193;-65
2023/02/06 07:13:08;;;;;;;17.77;6.77;;;;;;;-1.11;100.00;104140.47;5037601;28;20257;-65
2023/02/06 07:15:34;;;;;;;17.10;6.30;;;;;;;-1.09;100.00;104144.09;5039457;28;20226;-66
2023/02/06 07:18:00;;;;;;;18.33;5.83;;;;;;;-1.09;100.00;104144.09;5037446;28;20297;-67
2023/02/06 07:20:25;;;;;;;17.87;6.47;;;;;;;-1.07;100.00;104143.56;5044301;28;20210;-66
2023/02/06 07:22:52;;;;;;;21.33;6.33;;;;;;;-1.04;100.00;104151.47;5040673;28;20704;-66
2023/02/06 07:25:19;;;;;;;17.60;7.03;;;;;;;-1.00;100.00;104152.72;5034853;28;20617;-67
2023/02/06 07:27:45;;;;;;;16.73;7.67;;;;;;;-0.95;100.00;104156.66;5034288;28;20193;-67
2023/02/06 07:30:11;;;;;;;19.73;9.27;;;;;;;-0.88;100.00;104156.66;5036077;28;20207;-65
2023/02/06 07:32:37;;;;;;;22.30;9.33;;;;;;;-0.86;100.00;104157.75;5034516;28;20252;-67
2023/02/06 07:35:03;;;;;;;27.60;10.43;;;;;;;-0.84;100.00;104156.31;5036783;28;20206;-66
2023/02/06 07:37:29;;;;;;;22.90;10.33;;;;;;;-0.77;100.00;104157.19;5035194;28;20198;-65
2023/02/06 07:39:54;;;;;;;27.20;12.07;;;;;;;-0.73;100.00;104155.97;5033593;28;20236;-66
2023/02/06 07:42:20;;;;;;;23.93;10.97;;;;;;;-0.65;100.00;104156.13;5036608;28;20206;-63
2023/02/06 07:44:56;;;;;;;20.83;10.50;;;;;;;-0.57;100.00;104164.56;5037988;28;20597;-65
2023/02/06 07:47:21;;;;;;;18.47;10.60;;;;;;;-0.46;100.00;104165.09;5036996;28;20203;-66
2023/02/06 07:49:47;;;;;;;22.33;9.67;;;;;;;-0.34;100.00;104165.63;5038693;28;20201;-67
2023/02/06 07:52:14;;;;;;;22.13;9.83;;;;;;;-0.23;100.00;104175.34;5037514;28;20206;-66
2023/02/06 07:54:40;;;;;;;18.40;7.77;;;;;;;-0.22;100.00;104172.09;5039428;28;20212;-66
2023/02/06 07:57:05;;;;;;;26.23;8.50;;;;;;;-0.10;100.00;104168.44;5041804;28;20201;-68
2023/02/06 07:59:30;;;;;;;21.47;8.43;;;;;;;0.05;100.00;104177.78;5040669;28;20214;-66
2023/02/06 08:01:56;;;;;;;26.43;10.33;;;;;;;0.17;100.00;104180.78;5038363;28;20210;-66
2023/02/06 08:04:21;;;;;;;20.00;8.87;;;;;;;0.29;100.00;104173.00;5036428;28;20233;-67
2023/02/06 08:06:47;;;;;;;28.77;9.60;;;;;;;0.44;100.00;104174.72;5036334;28;20297;-65
2023/02/06 08:09:17;;;;;;;23.43;9.70;;;;;;;0.66;100.00;104168.88;5034800;28;20217;-65
2023/02/06 08:11:46;;;;;;;21.07;8.57;;;;;;;0.93;100.00;104176.97;5037363;28;20225;-67
2023/02/06 08:14:11;;;;;;;17.63;7.83;;;;;;;1.12;100.00;104168.19;5036705;28;20225;-65
2023/02/06 08:16:38;;;;;;;19.90;8.67;;;;;;;1.23;100.00;104176.94;5036367;28;20217;-65
2023/02/06 08:19:05;;;;;;;19.77;8.20;;;;;;;1.41;100.00;104173.88;5031820;28;20686;-64
2023/02/06 08:21:31;;;;;;;22.13;7.57;;;;;;;1.53;100.00;104168.56;5038135;28;20241;-65
2023/02/06 08:23:59;;;;;;;19.83;7.07;;;;;;;1.63;100.00;104153.69;5033971;28;20218;-65
2023/02/06 08:26:26;;;;;;;21.40;7.50;;;;;;;1.75;100.00;104154.09;5036353;28;20844;-65
2023/02/06 08:28:52;;;;;;;19.27;8.40;;;;;;;1.87;100.00;104152.88;5032722;28;20201;-64
2023/02/06 08:31:25;;;;;;;17.90;7.90;;;;;;;2.00;100.00;104154.34;5030803;28;20233;-66
2023/02/06 08:33:51;;;;;;;26.33;7.90;;;;;;;2.12;100.00;104149.72;5036408;28;20194;-67
2023/02/06 08:36:20;;;;;;;23.83;8.00;;;;;;;2.27;100.00;104139.59;5038410;28;20625;-70
2023/02/06 08:38:46;;;;;;;20.73;7.03;;;;;;;2.41;100.00;104135.97;5039311;28;20185;-67
2023/02/06 08:41:27;;;;;;;18.77;6.57;;;;;;;2.55;100.00;104138.31;5038117;28;20228;-67
2023/02/06 08:43:57;;;;;;;23.07;5.93;;;;;;;2.66;100.00;104122.63;5034259;28;20193;-66
2023/02/06 08:46:25;;;;;;;24.50;6.73;;;;;;;2.99;100.00;104132.03;5035843;28;20249;-69
2023/02/06 08:49:00;;;;;;;14.57;5.87;;;;;;;3.40;100.00;104115.97;5037390;28;20247;-67
2023/02/06 08:51:26;;;;;;;22.50;5.53;;;;;;;3.66;100.00;104114.38;5041423;28;20211;-68
2023/02/06 08:54:03;;;;;;;16.80;6.00;;;;;;;3.93;100.00;104102.81;5038461;28;20666;-67
2023/02/06 08:56:30;;;;;;;19.23;5.80;;;;;;;4.45;100.00;104106.22;5042276;28;20212;-67
2023/02/06 08:58:58;;;;;;;19.87;6.17;;;;;;;4.78;100.00;104104.38;5035385;28;20189;-68
2023/02/06 09:01:24;;;;;;;19.77;5.90;;;;;;;4.93;100.00;104104.16;5033554;28;20256;-68
2023/02/06 09:03:56;;;;;;;16.97;5.67;;;;;;;5.17;100.00;104103.94;5037132;28;20830;-69
2023/02/06 09:06:24;;;;;;;16.80;5.23;;;;;;;5.87;100.00;104101.16;5032312;28;20228;-68
2023/02/06 09:08:50;;;;;;;14.03;4.97;;;;;;;6.85;100.00;104101.56;5036489;28;20577;-68
2023/02/06 09:11:18;;;;;;;14.87;5.10;;;;;;;9.01;100.00;104096.75;5035108;28;20241;-67
2023/02/06 09:13:48;;;;;;;13.83;5.47;;;;;;;10.65;100.00;104091.28;5036912;28;20838;-67
2023/02/06 09:16:18;;;;;;;13.90;5.43;;;;;;;10.21;100.00;104082.06;5035840;28;20268;-68
2023/02/06 09:18:44;;;;;;;12.97;5.40;;;;;;;10.36;99.01;104088.28;5037613;28;20616;-67
2023/02/06 09:21:11;;;;;;;16.07;5.27;;;;;;;10.01;100.00;104095.06;5037856;28;20222;-67
2023/02/06 09:23:38;;;;;;;15.23;5.10;;;;;;;10.98;94.50;104088.53;5043816;28;20248;-67
2023/02/06 09:26:04;;;;;;;17.90;5.17;;;;;;;11.32;89.85;104105.47;5040004;28;20218;-68
2023/02/06 09:28:30;;;;;;;11.23;4.97;;;;;;;13.27;76.13;104095.28;5038658;28;20256;-68
2023/02/06 09:30:56;;;;;;;15.50;4.87;;;;;;;14.34;67.52;104093.91;5038395;28;20189;-68
2023/02/06 09:33:21;;;;;;;13.00;5.50;;;;;;;15.06;59.07;104101.41;5042833;28;20204;-67
2023/02/06 09:35:47;;;;;;;15.10;5.60;;;;;;;15.84;53.25;104102.97;5038995;28;20201;-68
2023/02/06 09:38:12;;;;;;;13.40;5.63;;;;;;;16.49;49.04;104107.13;5039227;28;20220;-67
2023/02/06 09:40:38;;;;;;;13.20;5.33;;;;;;;16.55;49.47;104122.06;5045963;28;20202;-67
2023/02/06 09:43:04;;;;;;;11.77;5.40;;;;;;;17.53;45.58;104118.06;5039887;28;20686;-68
2023/02/06 09:45:31;;;;;;;15.93;5.93;;;;;;;17.80;45.74;104126.13;5040440;28;20593;-68
2023/02/06 09:48:05;;;;;;;14.97;5.63;;;;;;;16.76;48.32;104117.91;5040120;28;20190;-67
2023/02/06 09:50:39;;;;;;;15.67;6.10;;;;;;;11.29;73.47;104138.63;5039287;28;20208;-68
2023/02/06 09:53:22;;;;;;;14.50;5.73;;;;;;;11.44;76.78;104140.56;5032775;28;20210;-68
2023/02/06 09:55:57;;;;;;;15.77;5.80;;;;;;;16.12;54.83;104120.78;5062487;28;20218;-68
2023/02/06 09:58:48;;;;;;;18.43;6.43;;;;;;;18.27;45.34;104114.28;5037849;28;20200;-66
2023/02/06 10:01:24;;;;;;;14.13;6.27;;;;;;;16.97;48.67;104112.00;5044824;28;20578;-67
2023/02/06 10:04:08;;;;;;;9.23;4.83;;;;;;;19.42;40.72;104107.56;5035523;28;20185;-67
2023/02/06 10:07:00;;;;;;;20.23;8.87;;;;;;;18.87;41.93;104108.03;5035812;28;20316;-65
2023/02/06 10:09:44;;;;;;;22.97;8.93;;;;;;;18.75;42.20;104115.38;5055259;28;20221;-67
2023/02/06 10:12:22;;;;;;;14.37;5.57;;;;;;;20.66;38.36;104100.47;5057157;28;20293;-66
2023/02/06 10:14:58;;;;;;;26.60;9.32;;;;;;;21.60;35.26;104093.66;5053335;28;20217;-67
2023/02/06 10:17:34;;;;;;;35.53;11.60;;;;;;;20.16;36.22;104100.63;5054144;28;20610;-66
2023/02/06 10:20:10;;;;;;;20.17;7.23;;;;;;;21.88;34.58;104096.16;5057057;28;20213;-68
2023/02/06 10:22:49;;;;;;;23.90;7.28;;;;;;;23.60;31.06;104086.03;5056942;28;20201;-66
2023/02/06 10:25:26;;;;;;;9.57;3.78;;;;;;;24.92;30.16;104082.00;5041247;28;20705;-68
2023/02/06 10:27:57;;;;;;;93.95;26.90;;;;;;;23.78;30.54;104088.09;5062125;28;20193;-66
2023/02/06 10:30:38;;;;;;;11.73;4.25;;;;;;;24.15;30.48;104082.63;5061874;28;20198;-66
2023/02/06 10:33:18;;;;;;;12.02;4.32;;;;;;;23.81;29.76;104081.16;5057765;28;20272;-68
2023/02/06 10:35:51;;;;;;;9.65;3.42;;;;;;;24.44;29.44;104078.72;5047348;28;20215;-68
2023/02/06 10:38:26;;;;;;;16.48;5.22;;;;;;;23.96;30.08;104080.56;5056875;28;20205;-68
2023/02/06 10:41:08;;;;;;;33.67;9.93;;;;;;;23.99;30.01;104080.63;5051632;28;20216;-68
2023/02/06 10:43:37;;;;;;;18.38;5.43;;;;;;;24.33;29.79;104073.31;5055508;28;20269;-68
2023/02/06 10:46:36;;;;;;;72.28;17.10;;;;;;;24.15;30.15;104067.78;5057006;28;20210;-67
2023/02/06 10:49:05;;;;;;;7.70;3.90;;;;;;;25.07;28.67;104066.41;5071981;28;20200;-66
2023/02/06 10:51:34;;;;;;;7.50;3.40;;;;;;;25.52;29.08;104066.94;5061387;28;20717;-67
2023/02/06 10:54:10;;;;;;;113.30;28.63;;;;;;;24.90;29.13;104073.19;5061060;28;20223;-67
2023/02/06 10:56:40;;;;;;;30.93;9.23;;;;;;;19.13;35.77;104099.50;5062673;28;20270;-67
2023/02/06 10:59:42;;;;;;;27.20;7.73;;;;;;;16.67;42.95;104105.41;5060170;28;20255;-66
2023/02/06 11:02:29;;;;;;;10.20;3.83;;;;;;;15.17;48.79;104109.72;5057629;28;20227;-65
2023/02/06 11:05:03;;;;;;;10.57;4.07;;;;;;;15.79;50.55;104109.63;5055332;28;20295;-66
2023/02/06 11:07:35;;;;;;;10.30;4.60;;;;;;;17.25;44.55;104096.91;5056306;28;20615;-66
2023/02/06 11:10:01;;;;;;;8.13;4.70;;;;;;;15.57;48.10;104111.91;5058103;28;20238;-65
2023/02/06 11:12:36;;;;;;;8.33;3.70;;;;;;;15.15;52.24;104114.81;5060817;28;20193;-67
2023/02/06 11:15:14;;;;;;;12.63;5.00;;;;;;;14.77;53.02;104101.53;5056961;28;20761;-65
2023/02/06 11:17:39;;;;;;;8.30;3.73;;;;;;;14.92;53.31;104106.66;5063329;28;20189;-66
2023/02/06 11:20:21;;;;;;;61.10;18.10;;;;;;;15.11;54.88;104105.13;5063250;28;20238;-66